sensor_id;sensor_type;location;lat;lon;timestamp;temperature;humidity
20141;DHT22;10231;47.702;9.826;2022-07-17T00:01:46;17.90;88.00
20141;DHT22;10231;47.702;9.826;2022-07-17T00:04:12;17.80;87.60
20141;DHT22;10231;47.702;9.826;2022-07-17T00:06:37;17.70;88.30
20141;DHT22;10231;47.702;9.826;2022-07-17T00:09:03;17.60;89.00
20141;DHT22;10231;47.702;9.826;2022-07-17T00:11:29;17.60;88.90
20141;DHT22;10231;47.702;9.826;2022-07-17T00:13:54;17.60;89.30
20141;DHT22;10231;47.702;9.826;2022-07-17T00:16:20;17.50;89.10
20141;DHT22;10231;47.702;9.826;2022-07-17T00:18:46;17.40;90.00
20141;DHT22;10231;47.702;9.826;2022-07-17T00:21:12;17.40;90.20
20141;DHT22;10231;47.702;9.826;2022-07-17T00:23:37;17.30;90.10
20141;DHT22;10231;47.702;9.826;2022-07-17T00:26:03;17.30;90.50
20141;DHT22;10231;47.702;9.826;2022-07-17T00:28:29;17.20;90.50
20141;DHT22;10231;47.702;9.826;2022-07-17T00:30:54;17.30;90.50
20141;DHT22;10231;47.702;9.826;2022-07-17T00:33:20;17.30;90.30
20141;DHT22;10231;47.702;9.826;2022-07-17T00:35:45;17.20;90.40
20141;DHT22;10231;47.702;9.826;2022-07-17T00:38:11;17.30;90.30
20141;DHT22;10231;47.702;9.826;2022-07-17T00:40:39;17.30;90.40
20141;DHT22;10231;47.702;9.826;2022-07-17T00:43:04;17.20;90.30
20141;DHT22;10231;47.702;9.826;2022-07-17T00:45:30;17.20;90.50
20141;DHT22;10231;47.702;9.826;2022-07-17T00:48:01;17.10;90.30
20141;DHT22;10231;47.702;9.826;2022-07-17T00:50:34;17.10;90.30
20141;DHT22;10231;47.702;9.826;2022-07-17T00:53:00;17.20;90.30
20141;DHT22;10231;47.702;9.826;2022-07-17T00:55:26;17.20;90.50
20141;DHT22;10231;47.702;9.826;2022-07-17T00:57:52;17.10;90.50
20141;DHT22;10231;47.702;9.826;2022-07-17T01:00:20;17.00;90.70
20141;DHT22;10231;47.702;9.826;2022-07-17T01:02:48;17.00;90.70
20141;DHT22;10231;47.702;9.826;2022-07-17T01:05:14;17.00;90.80
20141;DHT22;10231;47.702;9.826;2022-07-17T01:07:40;16.90;91.40
20141;DHT22;10231;47.702;9.826;2022-07-17T01:10:06;16.90;90.70
20141;DHT22;10231;47.702;9.826;2022-07-17T01:12:33;17.00;90.40
20141;DHT22;10231;47.702;9.826;2022-07-17T01:14:59;17.00;90.40
20141;DHT22;10231;47.702;9.826;2022-07-17T01:17:26;17.00;90.40
20141;DHT22;10231;47.702;9.826;2022-07-17T01:19:52;17.10;90.40
20141;DHT22;10231;47.702;9.826;2022-07-17T01:22:18;17.10;90.10
20141;DHT22;10231;47.702;9.826;2022-07-17T01:24:44;17.00;90.30
20141;DHT22;10231;47.702;9.826;2022-07-17T01:27:10;16.90;90.40
20141;DHT22;10231;47.702;9.826;2022-07-17T01:29:36;17.00;90.10
20141;DHT22;10231;47.702;9.826;2022-07-17T01:32:03;17.00;90.40
20141;DHT22;10231;47.702;9.826;2022-07-17T01:34:28;16.80;90.50
20141;DHT22;10231;47.702;9.826;2022-07-17T01:36:54;16.80;90.50
20141;DHT22;10231;47.702;9.826;2022-07-17T01:39:20;16.80;90.60
20141;DHT22;10231;47.702;9.826;2022-07-17T01:42:08;16.80;90.90
20141;DHT22;10231;47.702;9.826;2022-07-17T01:44:34;16.80;91.00
20141;DHT22;10231;47.702;9.826;2022-07-17T01:47:00;16.70;91.00
20141;DHT22;10231;47.702;9.826;2022-07-17T01:49:26;16.70;91.00
20141;DHT22;10231;47.702;9.826;2022-07-17T01:51:51;16.60;91.10
20141;DHT22;10231;47.702;9.826;2022-07-17T01:54:17;16.60;91.50
20141;DHT22;10231;47.702;9.826;2022-07-17T01:56:43;16.50;91.70
20141;DHT22;10231;47.702;9.826;2022-07-17T01:59:08;16.50;91.70
20141;DHT22;10231;47.702;9.826;2022-07-17T02:01:34;16.50;92.10
20141;DHT22;10231;47.702;9.826;2022-07-17T02:04:00;16.40;92.10
20141;DHT22;10231;47.702;9.826;2022-07-17T02:06:25;16.40;91.90
20141;DHT22;10231;47.702;9.826;2022-07-17T02:08:51;16.30;92.30
20141;DHT22;10231;47.702;9.826;2022-07-17T02:11:17;16.30;92.10
20141;DHT22;10231;47.702;9.826;2022-07-17T02:13:43;16.30;92.20
20141;DHT22;10231;47.702;9.826;2022-07-17T02:16:09;16.30;92.10
20141;DHT22;10231;47.702;9.826;2022-07-17T02:18:34;16.20;92.40
20141;DHT22;10231;47.702;9.826;2022-07-17T02:21:00;16.20;92.20
20141;DHT22;10231;47.702;9.826;2022-07-17T02:23:26;16.20;92.40
20141;DHT22;10231;47.702;9.826;2022-07-17T02:25:51;16.20;92.50
20141;DHT22;10231;47.702;9.826;2022-07-17T02:28:17;16.20;92.60
20141;DHT22;10231;47.702;9.826;2022-07-17T02:30:43;16.20;92.60
20141;DHT22;10231;47.702;9.826;2022-07-17T02:33:08;16.20;92.50
20141;DHT22;10231;47.702;9.826;2022-07-17T02:35:34;16.30;92.30
20141;DHT22;10231;47.702;9.826;2022-07-17T02:38:00;16.30;92.10
20141;DHT22;10231;47.702;9.826;2022-07-17T02:40:25;16.20;92.50
20141;DHT22;10231;47.702;9.826;2022-07-17T02:42:51;16.20;92.30
20141;DHT22;10231;47.702;9.826;2022-07-17T02:45:17;16.20;92.60
20141;DHT22;10231;47.702;9.826;2022-07-17T02:47:47;16.20;92.40
20141;DHT22;10231;47.702;9.826;2022-07-17T02:50:12;16.10;92.40
20141;DHT22;10231;47.702;9.826;2022-07-17T02:52:38;16.10;92.70
20141;DHT22;10231;47.702;9.826;2022-07-17T02:55:05;16.10;92.80
20141;DHT22;10231;47.702;9.826;2022-07-17T02:57:32;16.00;92.90
20141;DHT22;10231;47.702;9.826;2022-07-17T02:59:57;16.00;92.80
20141;DHT22;10231;47.702;9.826;2022-07-17T03:02:23;16.10;92.60
20141;DHT22;10231;47.702;9.826;2022-07-17T03:04:48;16.10;92.70
20141;DHT22;10231;47.702;9.826;2022-07-17T03:07:14;16.00;92.70
20141;DHT22;10231;47.702;9.826;2022-07-17T03:09:40;16.00;92.90
20141;DHT22;10231;47.702;9.826;2022-07-17T03:12:05;16.00;92.90
20141;DHT22;10231;47.702;9.826;2022-07-17T03:14:31;15.90;93.00
20141;DHT22;10231;47.702;9.826;2022-07-17T03:16:57;15.90;93.20
20141;DHT22;10231;47.702;9.826;2022-07-17T03:19:22;15.70;93.40
20141;DHT22;10231;47.702;9.826;2022-07-17T03:21:48;15.70;93.40
20141;DHT22;10231;47.702;9.826;2022-07-17T03:24:14;15.70;93.50
20141;DHT22;10231;47.702;9.826;2022-07-17T03:26:39;15.60;93.50
20141;DHT22;10231;47.702;9.826;2022-07-17T03:29:05;15.60;93.80
20141;DHT22;10231;47.702;9.826;2022-07-17T03:31:31;15.60;93.80
20141;DHT22;10231;47.702;9.826;2022-07-17T03:33:56;15.60;94.10
20141;DHT22;10231;47.702;9.826;2022-07-17T03:36:22;15.60;94.00
20141;DHT22;10231;47.702;9.826;2022-07-17T03:38:47;15.50;94.50
20141;DHT22;10231;47.702;9.826;2022-07-17T03:41:13;15.50;94.40
20141;DHT22;10231;47.702;9.826;2022-07-17T03:43:38;15.50;94.30
20141;DHT22;10231;47.702;9.826;2022-07-17T03:46:04;15.50;94.30
20141;DHT22;10231;47.702;9.826;2022-07-17T03:48:30;15.50;94.20
20141;DHT22;10231;47.702;9.826;2022-07-17T03:50:55;15.60;94.20
20141;DHT22;10231;47.702;9.826;2022-07-17T03:53:21;15.60;94.20
20141;DHT22;10231;47.702;9.826;2022-07-17T03:55:46;15.60;94.10
20141;DHT22;10231;47.702;9.826;2022-07-17T03:58:12;15.60;94.00
20141;DHT22;10231;47.702;9.826;2022-07-17T04:00:38;15.50;94.10
20141;DHT22;10231;47.702;9.826;2022-07-17T04:03:03;15.50;94.20
20141;DHT22;10231;47.702;9.826;2022-07-17T04:05:29;15.50;94.30
20141;DHT22;10231;47.702;9.826;2022-07-17T04:07:54;15.60;94.40
20141;DHT22;10231;47.702;9.826;2022-07-17T04:10:20;15.50;94.40
20141;DHT22;10231;47.702;9.826;2022-07-17T04:12:46;15.50;94.30
20141;DHT22;10231;47.702;9.826;2022-07-17T04:15:13;15.50;94.30
20141;DHT22;10231;47.702;9.826;2022-07-17T04:17:58;15.50;94.60
20141;DHT22;10231;47.702;9.826;2022-07-17T04:20:24;15.50;94.40
20141;DHT22;10231;47.702;9.826;2022-07-17T04:22:50;15.50;94.40
20141;DHT22;10231;47.702;9.826;2022-07-17T04:25:15;15.50;94.40
20141;DHT22;10231;47.702;9.826;2022-07-17T04:27:41;15.50;94.60
20141;DHT22;10231;47.702;9.826;2022-07-17T04:30:07;15.60;94.60
20141;DHT22;10231;47.702;9.826;2022-07-17T04:32:32;15.60;95.00
20141;DHT22;10231;47.702;9.826;2022-07-17T04:34:58;15.60;94.20
20141;DHT22;10231;47.702;9.826;2022-07-17T04:37:23;15.60;94.60
20141;DHT22;10231;47.702;9.826;2022-07-17T04:39:49;15.50;94.50
20141;DHT22;10231;47.702;9.826;2022-07-17T04:42:15;15.60;94.70
20141;DHT22;10231;47.702;9.826;2022-07-17T04:44:40;15.60;94.70
20141;DHT22;10231;47.702;9.826;2022-07-17T04:47:06;15.60;94.70
20141;DHT22;10231;47.702;9.826;2022-07-17T04:49:31;15.70;94.30
20141;DHT22;10231;47.702;9.826;2022-07-17T04:51:57;15.70;94.50
20141;DHT22;10231;47.702;9.826;2022-07-17T04:54:22;15.80;94.50
20141;DHT22;10231;47.702;9.826;2022-07-17T04:56:49;15.80;94.50
20141;DHT22;10231;47.702;9.826;2022-07-17T04:59:15;15.80;94.50
20141;DHT22;10231;47.702;9.826;2022-07-17T05:01:41;15.80;94.30
20141;DHT22;10231;47.702;9.826;2022-07-17T05:04:06;15.90;94.70
20141;DHT22;10231;47.702;9.826;2022-07-17T05:06:32;15.90;94.60
20141;DHT22;10231;47.702;9.826;2022-07-17T05:08:58;16.00;94.40
20141;DHT22;10231;47.702;9.826;2022-07-17T05:11:23;16.10;94.40
20141;DHT22;10231;47.702;9.826;2022-07-17T05:13:49;16.10;94.10
20141;DHT22;10231;47.702;9.826;2022-07-17T05:16:15;16.20;94.50
20141;DHT22;10231;47.702;9.826;2022-07-17T05:18:40;16.20;94.50
20141;DHT22;10231;47.702;9.826;2022-07-17T05:21:06;16.30;94.50
20141;DHT22;10231;47.702;9.826;2022-07-17T05:23:31;16.30;94.50
20141;DHT22;10231;47.702;9.826;2022-07-17T05:25:57;16.40;94.40
20141;DHT22;10231;47.702;9.826;2022-07-17T05:28:23;16.50;94.10
20141;DHT22;10231;47.702;9.826;2022-07-17T05:30:48;16.50;94.30
20141;DHT22;10231;47.702;9.826;2022-07-17T05:33:14;16.60;94.00
20141;DHT22;10231;47.702;9.826;2022-07-17T05:35:39;16.70;94.10
20141;DHT22;10231;47.702;9.826;2022-07-17T05:38:05;16.80;94.00
20141;DHT22;10231;47.702;9.826;2022-07-17T05:40:31;16.80;94.00
20141;DHT22;10231;47.702;9.826;2022-07-17T05:42:57;16.90;93.80
20141;DHT22;10231;47.702;9.826;2022-07-17T05:45:23;16.90;93.90
20141;DHT22;10231;47.702;9.826;2022-07-17T05:47:49;17.00;93.80
20141;DHT22;10231;47.702;9.826;2022-07-17T05:50:14;17.10;93.90
20141;DHT22;10231;47.702;9.826;2022-07-17T05:52:40;17.10;94.00
20141;DHT22;10231;47.702;9.826;2022-07-17T05:55:06;17.20;93.90
20141;DHT22;10231;47.702;9.826;2022-07-17T05:57:33;17.30;94.20
20141;DHT22;10231;47.702;9.826;2022-07-17T05:59:58;17.30;94.10
20141;DHT22;10231;47.702;9.826;2022-07-17T06:02:24;17.30;94.00
20141;DHT22;10231;47.702;9.826;2022-07-17T06:04:49;17.40;94.00
20141;DHT22;10231;47.702;9.826;2022-07-17T06:07:15;17.50;93.50
20141;DHT22;10231;47.702;9.826;2022-07-17T06:09:41;17.60;93.70
20141;DHT22;10231;47.702;9.826;2022-07-17T06:12:07;17.60;93.40
20141;DHT22;10231;47.702;9.826;2022-07-17T06:14:32;17.70;93.70
20141;DHT22;10231;47.702;9.826;2022-07-17T06:16:58;17.80;93.40
20141;DHT22;10231;47.702;9.826;2022-07-17T06:19:24;17.90;93.50
20141;DHT22;10231;47.702;9.826;2022-07-17T06:21:49;18.00;93.10
20141;DHT22;10231;47.702;9.826;2022-07-17T06:24:15;18.10;93.40
20141;DHT22;10231;47.702;9.826;2022-07-17T06:26:40;18.20;93.40
20141;DHT22;10231;47.702;9.826;2022-07-17T06:29:06;18.30;93.30
20141;DHT22;10231;47.702;9.826;2022-07-17T06:31:32;18.30;92.80
20141;DHT22;10231;47.702;9.826;2022-07-17T06:33:58;18.40;92.40
20141;DHT22;10231;47.702;9.826;2022-07-17T06:36:23;18.40;92.50
20141;DHT22;10231;47.702;9.826;2022-07-17T06:38:49;18.60;92.10
20141;DHT22;10231;47.702;9.826;2022-07-17T06:41:14;18.60;92.10
20141;DHT22;10231;47.702;9.826;2022-07-17T06:43:40;18.70;91.90
20141;DHT22;10231;47.702;9.826;2022-07-17T06:46:06;18.70;91.90
20141;DHT22;10231;47.702;9.826;2022-07-17T06:48:32;18.80;91.90
20141;DHT22;10231;47.702;9.826;2022-07-17T06:50:57;18.90;91.70
20141;DHT22;10231;47.702;9.826;2022-07-17T06:53:23;19.00;91.40
20141;DHT22;10231;47.702;9.826;2022-07-17T06:55:48;19.00;91.70
20141;DHT22;10231;47.702;9.826;2022-07-17T06:58:14;19.00;91.60
20141;DHT22;10231;47.702;9.826;2022-07-17T07:00:40;19.10;91.60
20141;DHT22;10231;47.702;9.826;2022-07-17T07:03:05;19.10;91.70
20141;DHT22;10231;47.702;9.826;2022-07-17T07:05:31;19.20;91.30
20141;DHT22;10231;47.702;9.826;2022-07-17T07:07:57;19.30;91.10
20141;DHT22;10231;47.702;9.826;2022-07-17T07:10:22;19.30;91.30
20141;DHT22;10231;47.702;9.826;2022-07-17T07:12:48;19.40;90.50
20141;DHT22;10231;47.702;9.826;2022-07-17T07:15:14;19.40;90.40
20141;DHT22;10231;47.702;9.826;2022-07-17T07:17:40;19.50;90.30
20141;DHT22;10231;47.702;9.826;2022-07-17T07:20:07;19.60;90.20
20141;DHT22;10231;47.702;9.826;2022-07-17T07:22:33;19.60;90.20
20141;DHT22;10231;47.702;9.826;2022-07-17T07:24:59;19.60;89.80
20141;DHT22;10231;47.702;9.826;2022-07-17T07:27:24;19.70;90.10
20141;DHT22;10231;47.702;9.826;2022-07-17T07:29:50;19.70;89.90
20141;DHT22;10231;47.702;9.826;2022-07-17T07:32:16;19.80;90.10
20141;DHT22;10231;47.702;9.826;2022-07-17T07:34:41;19.90;90.00
20141;DHT22;10231;47.702;9.826;2022-07-17T07:37:07;19.90;89.40
20141;DHT22;10231;47.702;9.826;2022-07-17T07:39:33;20.00;89.30
20141;DHT22;10231;47.702;9.826;2022-07-17T07:41:58;20.00;89.40
20141;DHT22;10231;47.702;9.826;2022-07-17T07:44:25;20.00;89.10
20141;DHT22;10231;47.702;9.826;2022-07-17T07:46:51;20.00;89.50
20141;DHT22;10231;47.702;9.826;2022-07-17T07:49:17;20.10;89.90
20141;DHT22;10231;47.702;9.826;2022-07-17T07:51:43;20.10;90.30
20141;DHT22;10231;47.702;9.826;2022-07-17T07:54:08;20.20;90.20
20141;DHT22;10231;47.702;9.826;2022-07-17T07:56:34;20.30;88.90
20141;DHT22;10231;47.702;9.826;2022-07-17T07:59:07;20.30;88.70
20141;DHT22;10231;47.702;9.826;2022-07-17T08:01:42;20.50;87.10
20141;DHT22;10231;47.702;9.826;2022-07-17T08:04:07;20.50;86.50
20141;DHT22;10231;47.702;9.826;2022-07-17T08:06:33;20.50;86.70
20141;DHT22;10231;47.702;9.826;2022-07-17T08:08:59;20.50;87.20
20141;DHT22;10231;47.702;9.826;2022-07-17T08:11:24;20.60;87.10
20141;DHT22;10231;47.702;9.826;2022-07-17T08:13:52;20.60;86.90
20141;DHT22;10231;47.702;9.826;2022-07-17T08:16:29;20.70;87.50
20141;DHT22;10231;47.702;9.826;2022-07-17T08:18:55;20.80;86.60
20141;DHT22;10231;47.702;9.826;2022-07-17T08:21:20;20.90;86.20
20141;DHT22;10231;47.702;9.826;2022-07-17T08:23:51;20.90;85.90
20141;DHT22;10231;47.702;9.826;2022-07-17T08:26:16;21.00;86.50
20141;DHT22;10231;47.702;9.826;2022-07-17T08:28:42;21.00;85.50
20141;DHT22;10231;47.702;9.826;2022-07-17T08:31:08;21.10;84.40
20141;DHT22;10231;47.702;9.826;2022-07-17T08:33:33;21.20;82.90
20141;DHT22;10231;47.702;9.826;2022-07-17T08:35:59;21.20;83.70
20141;DHT22;10231;47.702;9.826;2022-07-17T08:38:25;21.20;83.70
20141;DHT22;10231;47.702;9.826;2022-07-17T08:40:51;21.20;83.40
20141;DHT22;10231;47.702;9.826;2022-07-17T08:43:19;21.30;83.60
20141;DHT22;10231;47.702;9.826;2022-07-17T08:45:45;21.30;82.80
20141;DHT22;10231;47.702;9.826;2022-07-17T08:48:14;21.30;81.90
20141;DHT22;10231;47.702;9.826;2022-07-17T08:50:41;21.30;82.30
20141;DHT22;10231;47.702;9.826;2022-07-17T08:53:06;21.40;81.90
20141;DHT22;10231;47.702;9.826;2022-07-17T08:55:33;21.40;81.60
20141;DHT22;10231;47.702;9.826;2022-07-17T08:57:58;21.50;81.90
20141;DHT22;10231;47.702;9.826;2022-07-17T09:00:25;21.50;82.60
20141;DHT22;10231;47.702;9.826;2022-07-17T09:05:29;21.60;80.20
20141;DHT22;10231;47.702;9.826;2022-07-17T09:07:56;21.60;80.50
20141;DHT22;10231;47.702;9.826;2022-07-17T09:10:32;21.50;80.80
20141;DHT22;10231;47.702;9.826;2022-07-17T09:12:59;21.60;81.80
20141;DHT22;10231;47.702;9.826;2022-07-17T09:15:26;21.60;80.90
20141;DHT22;10231;47.702;9.826;2022-07-17T09:17:54;21.60;80.70
20141;DHT22;10231;47.702;9.826;2022-07-17T09:20:21;21.60;80.20
20141;DHT22;10231;47.702;9.826;2022-07-17T09:23:02;21.60;80.40
20141;DHT22;10231;47.702;9.826;2022-07-17T09:25:41;21.60;80.80
20141;DHT22;10231;47.702;9.826;2022-07-17T09:28:10;21.70;81.10
20141;DHT22;10231;47.702;9.826;2022-07-17T09:30:41;21.70;81.40
20141;DHT22;10231;47.702;9.826;2022-07-17T09:33:29;21.70;80.60
20141;DHT22;10231;47.702;9.826;2022-07-17T09:36:08;21.80;81.00
20141;DHT22;10231;47.702;9.826;2022-07-17T09:38:39;21.80;81.90
20141;DHT22;10231;47.702;9.826;2022-07-17T09:43:44;21.90;80.00
20141;DHT22;10231;47.702;9.826;2022-07-17T09:46:13;21.90;81.10
20141;DHT22;10231;47.702;9.826;2022-07-17T09:48:42;22.10;85.00
20141;DHT22;10231;47.702;9.826;2022-07-17T09:51:17;22.10;83.10
20141;DHT22;10231;47.702;9.826;2022-07-17T09:53:45;22.30;83.70
20141;DHT22;10231;47.702;9.826;2022-07-17T09:56:16;22.30;81.60
20141;DHT22;10231;47.702;9.826;2022-07-17T09:58:45;22.30;82.80
20141;DHT22;10231;47.702;9.826;2022-07-17T10:01:13;22.40;80.50
20141;DHT22;10231;47.702;9.826;2022-07-17T10:03:40;22.40;81.00
20141;DHT22;10231;47.702;9.826;2022-07-17T10:06:06;22.50;79.90
20141;DHT22;10231;47.702;9.826;2022-07-17T10:08:32;22.50;80.80
20141;DHT22;10231;47.702;9.826;2022-07-17T10:11:00;22.60;82.00
20141;DHT22;10231;47.702;9.826;2022-07-17T10:13:26;22.60;80.10
20141;DHT22;10231;47.702;9.826;2022-07-17T10:15:52;22.70;79.30
20141;DHT22;10231;47.702;9.826;2022-07-17T10:18:20;22.70;80.40
20141;DHT22;10231;47.702;9.826;2022-07-17T10:20:46;22.70;80.00
20141;DHT22;10231;47.702;9.826;2022-07-17T10:23:15;22.70;79.80
20141;DHT22;10231;47.702;9.826;2022-07-17T10:25:41;22.70;80.10
20141;DHT22;10231;47.702;9.826;2022-07-17T10:28:08;22.80;78.20
20141;DHT22;10231;47.702;9.826;2022-07-17T10:30:34;22.80;77.70
20141;DHT22;10231;47.702;9.826;2022-07-17T10:33:04;22.80;79.20
20141;DHT22;10231;47.702;9.826;2022-07-17T10:35:46;22.90;80.00
20141;DHT22;10231;47.702;9.826;2022-07-17T10:38:13;23.00;79.40
20141;DHT22;10231;47.702;9.826;2022-07-17T10:40:41;23.00;78.30
20141;DHT22;10231;47.702;9.826;2022-07-17T10:43:08;23.00;77.30
20141;DHT22;10231;47.702;9.826;2022-07-17T10:45:42;23.20;78.30
20141;DHT22;10231;47.702;9.826;2022-07-17T10:48:18;23.20;76.80
20141;DHT22;10231;47.702;9.826;2022-07-17T10:50:55;23.30;79.70
20141;DHT22;10231;47.702;9.826;2022-07-17T10:53:29;23.40;79.10
20141;DHT22;10231;47.702;9.826;2022-07-17T10:55:58;23.40;75.60
20141;DHT22;10231;47.702;9.826;2022-07-17T10:58:27;23.40;74.70
20141;DHT22;10231;47.702;9.826;2022-07-17T11:03:53;23.40;77.60
20141;DHT22;10231;47.702;9.826;2022-07-17T11:06:23;23.50;76.90
20141;DHT22;10231;47.702;9.826;2022-07-17T11:08:59;23.50;75.30
20141;DHT22;10231;47.702;9.826;2022-07-17T11:11:45;23.70;77.00
20141;DHT22;10231;47.702;9.826;2022-07-17T11:14:21;23.70;79.20
20141;DHT22;10231;47.702;9.826;2022-07-17T11:19:30;24.00;75.30
20141;DHT22;10231;47.702;9.826;2022-07-17T11:22:05;24.00;73.70
20141;DHT22;10231;47.702;9.826;2022-07-17T11:24:48;24.10;79.80
20141;DHT22;10231;47.702;9.826;2022-07-17T11:27:22;24.20;75.30
20141;DHT22;10231;47.702;9.826;2022-07-17T11:29:49;24.20;72.90
20141;DHT22;10231;47.702;9.826;2022-07-17T11:32:15;24.20;74.00
20141;DHT22;10231;47.702;9.826;2022-07-17T11:34:41;24.20;73.00
20141;DHT22;10231;47.702;9.826;2022-07-17T11:37:08;24.30;72.30
20141;DHT22;10231;47.702;9.826;2022-07-17T11:39:52;24.30;71.00
20141;DHT22;10231;47.702;9.826;2022-07-17T11:42:21;24.40;71.40
20141;DHT22;10231;47.702;9.826;2022-07-17T11:44:49;24.40;74.10
20141;DHT22;10231;47.702;9.826;2022-07-17T11:47:24;24.50;74.10
20141;DHT22;10231;47.702;9.826;2022-07-17T11:49:52;24.60;72.50
20141;DHT22;10231;47.702;9.826;2022-07-17T11:52:38;24.60;73.90
20141;DHT22;10231;47.702;9.826;2022-07-17T11:55:04;24.70;72.20
20141;DHT22;10231;47.702;9.826;2022-07-17T11:57:45;24.70;70.90
20141;DHT22;10231;47.702;9.826;2022-07-17T12:00:12;24.80;73.10
20141;DHT22;10231;47.702;9.826;2022-07-17T12:02:37;24.80;72.90
20141;DHT22;10231;47.702;9.826;2022-07-17T12:05:03;25.00;70.00
20141;DHT22;10231;47.702;9.826;2022-07-17T12:07:40;25.00;69.20
20141;DHT22;10231;47.702;9.826;2022-07-17T12:12:57;25.10;72.80
20141;DHT22;10231;47.702;9.826;2022-07-17T12:15:47;25.20;70.20
20141;DHT22;10231;47.702;9.826;2022-07-17T12:18:28;25.30;70.90
20141;DHT22;10231;47.702;9.826;2022-07-17T12:21:02;25.30;70.60
20141;DHT22;10231;47.702;9.826;2022-07-17T12:23:38;25.40;69.00
20141;DHT22;10231;47.702;9.826;2022-07-17T12:26:11;25.40;70.00
20141;DHT22;10231;47.702;9.826;2022-07-17T12:28:38;25.50;69.40
20141;DHT22;10231;47.702;9.826;2022-07-17T12:31:05;25.50;69.20
20141;DHT22;10231;47.702;9.826;2022-07-17T12:33:32;25.60;70.40
20141;DHT22;10231;47.702;9.826;2022-07-17T12:35:58;25.70;73.40
20141;DHT22;10231;47.702;9.826;2022-07-17T12:38:23;25.80;72.00
20141;DHT22;10231;47.702;9.826;2022-07-17T12:40:49;25.80;72.20
20141;DHT22;10231;47.702;9.826;2022-07-17T12:43:14;26.00;69.00
20141;DHT22;10231;47.702;9.826;2022-07-17T12:45:40;26.10;69.80
20141;DHT22;10231;47.702;9.826;2022-07-17T12:48:06;26.10;73.20
20141;DHT22;10231;47.702;9.826;2022-07-17T12:50:32;26.30;71.50
20141;DHT22;10231;47.702;9.826;2022-07-17T12:52:58;26.40;68.80
20141;DHT22;10231;47.702;9.826;2022-07-17T12:55:24;26.40;68.80
20141;DHT22;10231;47.702;9.826;2022-07-17T12:57:49;26.50;69.30
20141;DHT22;10231;47.702;9.826;2022-07-17T13:00:16;26.50;66.70
20141;DHT22;10231;47.702;9.826;2022-07-17T13:02:41;26.50;68.90
20141;DHT22;10231;47.702;9.826;2022-07-17T13:05:07;26.60;66.80
20141;DHT22;10231;47.702;9.826;2022-07-17T13:07:33;26.60;68.20
20141;DHT22;10231;47.702;9.826;2022-07-17T13:09:59;26.60;67.60
20141;DHT22;10231;47.702;9.826;2022-07-17T13:12:25;26.70;65.90
20141;DHT22;10231;47.702;9.826;2022-07-17T13:14:51;26.80;65.20
20141;DHT22;10231;47.702;9.826;2022-07-17T13:17:16;26.80;65.70
20141;DHT22;10231;47.702;9.826;2022-07-17T13:19:42;26.90;65.10
20141;DHT22;10231;47.702;9.826;2022-07-17T13:22:08;26.90;66.00
20141;DHT22;10231;47.702;9.826;2022-07-17T13:24:34;27.00;62.50
20141;DHT22;10231;47.702;9.826;2022-07-17T13:27:00;27.10;65.40
20141;DHT22;10231;47.702;9.826;2022-07-17T13:29:26;27.20;62.70
20141;DHT22;10231;47.702;9.826;2022-07-17T13:31:53;27.30;64.30
20141;DHT22;10231;47.702;9.826;2022-07-17T13:34:19;27.30;60.80
20141;DHT22;10231;47.702;9.826;2022-07-17T13:36:44;27.30;62.00
20141;DHT22;10231;47.702;9.826;2022-07-17T13:39:10;27.40;61.40
20141;DHT22;10231;47.702;9.826;2022-07-17T13:41:37;27.40;64.70
20141;DHT22;10231;47.702;9.826;2022-07-17T13:44:04;27.50;63.40
20141;DHT22;10231;47.702;9.826;2022-07-17T13:46:30;27.60;64.20
20141;DHT22;10231;47.702;9.826;2022-07-17T13:48:55;27.70;65.20
20141;DHT22;10231;47.702;9.826;2022-07-17T13:51:21;27.80;63.40
20141;DHT22;10231;47.702;9.826;2022-07-17T13:53:47;27.80;63.80
20141;DHT22;10231;47.702;9.826;2022-07-17T13:56:13;27.90;64.40
20141;DHT22;10231;47.702;9.826;2022-07-17T13:58:39;28.00;63.50
20141;DHT22;10231;47.702;9.826;2022-07-17T14:01:05;28.00;61.60
20141;DHT22;10231;47.702;9.826;2022-07-17T14:03:31;28.20;61.60
20141;DHT22;10231;47.702;9.826;2022-07-17T14:05:57;28.20;62.50
20141;DHT22;10231;47.702;9.826;2022-07-17T14:08:23;28.20;60.30
20141;DHT22;10231;47.702;9.826;2022-07-17T14:10:49;28.20;60.70
20141;DHT22;10231;47.702;9.826;2022-07-17T14:13:14;28.20;61.60
20141;DHT22;10231;47.702;9.826;2022-07-17T14:15:40;28.30;59.70
20141;DHT22;10231;47.702;9.826;2022-07-17T14:18:06;28.30;60.40
20141;DHT22;10231;47.702;9.826;2022-07-17T14:20:31;28.40;60.20
20141;DHT22;10231;47.702;9.826;2022-07-17T14:22:57;28.50;60.40
20141;DHT22;10231;47.702;9.826;2022-07-17T14:25:23;28.60;59.50
20141;DHT22;10231;47.702;9.826;2022-07-17T14:27:48;28.70;57.40
20141;DHT22;10231;47.702;9.826;2022-07-17T14:30:14;28.80;58.80
20141;DHT22;10231;47.702;9.826;2022-07-17T14:32:40;28.90;58.30
20141;DHT22;10231;47.702;9.826;2022-07-17T14:35:06;29.00;56.00
20141;DHT22;10231;47.702;9.826;2022-07-17T14:37:31;29.00;57.70
20141;DHT22;10231;47.702;9.826;2022-07-17T14:39:57;29.10;55.00
20141;DHT22;10231;47.702;9.826;2022-07-17T14:42:22;29.20;56.10
20141;DHT22;10231;47.702;9.826;2022-07-17T14:44:48;29.30;57.90
20141;DHT22;10231;47.702;9.826;2022-07-17T14:47:14;29.40;56.00
20141;DHT22;10231;47.702;9.826;2022-07-17T14:49:42;29.40;56.00
20141;DHT22;10231;47.702;9.826;2022-07-17T14:52:07;29.60;56.70
20141;DHT22;10231;47.702;9.826;2022-07-17T14:54:33;29.70;55.40
20141;DHT22;10231;47.702;9.826;2022-07-17T14:56:59;29.80;56.60
20141;DHT22;10231;47.702;9.826;2022-07-17T14:59:26;29.90;55.00
20141;DHT22;10231;47.702;9.826;2022-07-17T15:01:52;30.00;54.70
20141;DHT22;10231;47.702;9.826;2022-07-17T15:04:17;30.10;55.00
20141;DHT22;10231;47.702;9.826;2022-07-17T15:06:43;30.20;53.60
20141;DHT22;10231;47.702;9.826;2022-07-17T15:09:10;30.30;55.70
20141;DHT22;10231;47.702;9.826;2022-07-17T15:11:36;30.30;55.50
20141;DHT22;10231;47.702;9.826;2022-07-17T15:14:01;30.40;51.90
20141;DHT22;10231;47.702;9.826;2022-07-17T15:16:27;30.40;51.80
20141;DHT22;10231;47.702;9.826;2022-07-17T15:18:53;30.40;52.10
20141;DHT22;10231;47.702;9.826;2022-07-17T15:21:18;30.50;51.00
20141;DHT22;10231;47.702;9.826;2022-07-17T15:23:44;30.50;51.20
20141;DHT22;10231;47.702;9.826;2022-07-17T15:26:10;30.60;51.00
20141;DHT22;10231;47.702;9.826;2022-07-17T15:28:35;30.60;48.90
20141;DHT22;10231;47.702;9.826;2022-07-17T15:31:01;30.80;49.60
20141;DHT22;10231;47.702;9.826;2022-07-17T15:33:27;30.90;47.60
20141;DHT22;10231;47.702;9.826;2022-07-17T15:35:52;31.00;46.20
20141;DHT22;10231;47.702;9.826;2022-07-17T15:38:18;31.00;49.80
20141;DHT22;10231;47.702;9.826;2022-07-17T15:40:44;30.90;48.20
20141;DHT22;10231;47.702;9.826;2022-07-17T15:43:09;31.00;47.40